sensor_id;sensor_type;location;lat;lon;timestamp;P1;durP1;ratioP1;P2;durP2;ratioP2
71288;SDS011;59068;52.502;9.860;2023-05-14T00:00:20;5.40;;;4.90;;
71288;SDS011;59068;52.502;9.860;2023-05-14T00:02:47;5.30;;;4.90;;
71288;SDS011;59068;52.502;9.860;2023-05-14T00:05:14;5.10;;;4.80;;
71288;SDS011;59068;52.502;9.860;2023-05-14T00:07:39;5.63;;;5.13;;
71288;SDS011;59068;52.502;9.860;2023-05-14T00:10:05;5.37;;;4.93;;
71288;SDS011;59068;52.502;9.860;2023-05-14T00:12:31;5.50;;;5.00;;
71288;SDS011;59068;52.502;9.860;2023-05-14T00:14:57;5.90;;;5.30;;
71288;SDS011;59068;52.502;9.860;2023-05-14T00:17:24;5.53;;;5.13;;
71288;SDS011;59068;52.502;9.860;2023-05-14T00:19:51;6.23;;;5.63;;
71288;SDS011;59068;52.502;9.860;2023-05-14T00:22:17;6.20;;;5.40;;
71288;SDS011;59068;52.502;9.860;2023-05-14T00:24:43;5.83;;;5.30;;
71288;SDS011;59068;52.502;9.860;2023-05-14T00:27:09;6.57;;;5.87;;
71288;SDS011;59068;52.502;9.860;2023-05-14T00:29:35;6.00;;;5.50;;
71288;SDS011;59068;52.502;9.860;2023-05-14T00:32:01;5.10;;;4.80;;
71288;SDS011;59068;52.502;9.860;2023-05-14T00:34:27;5.27;;;4.93;;
71288;SDS011;59068;52.502;9.860;2023-05-14T00:36:53;5.90;;;5.40;;
71288;SDS011;59068;52.502;9.860;2023-05-14T00:39:19;5.27;;;4.87;;
71288;SDS011;59068;52.502;9.860;2023-05-14T00:41:46;6.00;;;5.40;;
71288;SDS011;59068;52.502;9.860;2023-05-14T00:44:13;6.50;;;5.10;;
71288;SDS011;59068;52.502;9.860;2023-05-14T00:46:38;5.53;;;5.13;;
71288;SDS011;59068;52.502;9.860;2023-05-14T00:49:05;5.60;;;5.10;;
71288;SDS011;59068;52.502;9.860;2023-05-14T00:51:32;5.33;;;4.93;;
71288;SDS011;59068;52.502;9.860;2023-05-14T00:53:57;5.27;;;4.77;;
71288;SDS011;59068;52.502;9.860;2023-05-14T00:56:24;6.30;;;5.77;;
71288;SDS011;59068;52.502;9.860;2023-05-14T00:58:50;6.40;;;5.80;;
71288;SDS011;59068;52.502;9.860;2023-05-14T01:01:17;5.57;;;5.17;;
71288;SDS011;59068;52.502;9.860;2023-05-14T01:03:44;5.60;;;5.07;;
71288;SDS011;59068;52.502;9.860;2023-05-14T01:12:05;5.37;;;4.87;;
71288;SDS011;59068;52.502;9.860;2023-05-14T01:17:27;5.33;;;4.90;;
71288;SDS011;59068;52.502;9.860;2023-05-14T01:19:58;6.20;;;4.77;;
71288;SDS011;59068;52.502;9.860;2023-05-14T01:22:26;4.93;;;4.63;;
71288;SDS011;59068;52.502;9.860;2023-05-14T01:24:53;4.90;;;4.60;;
71288;SDS011;59068;52.502;9.860;2023-05-14T01:33:10;5.93;;;5.43;;
71288;SDS011;59068;52.502;9.860;2023-05-14T01:35:44;4.70;;;4.20;;
71288;SDS011;59068;52.502;9.860;2023-05-14T01:38:12;5.00;;;4.60;;
71288;SDS011;59068;52.502;9.860;2023-05-14T01:40:40;4.70;;;4.30;;
71288;SDS011;59068;52.502;9.860;2023-05-14T01:43:10;5.10;;;4.77;;
71288;SDS011;59068;52.502;9.860;2023-05-14T01:45:37;4.97;;;4.57;;
71288;SDS011;59068;52.502;9.860;2023-05-14T01:48:03;5.00;;;4.70;;
71288;SDS011;59068;52.502;9.860;2023-05-14T01:50:31;4.73;;;4.43;;
71288;SDS011;59068;52.502;9.860;2023-05-14T01:52:56;5.03;;;4.70;;
71288;SDS011;59068;52.502;9.860;2023-05-14T01:55:23;5.10;;;4.70;;
71288;SDS011;59068;52.502;9.860;2023-05-14T01:57:50;5.73;;;5.23;;
71288;SDS011;59068;52.502;9.860;2023-05-14T02:00:17;5.27;;;4.97;;
71288;SDS011;59068;52.502;9.860;2023-05-14T02:02:44;5.77;;;4.93;;
71288;SDS011;59068;52.502;9.860;2023-05-14T02:05:11;5.50;;;5.10;;
71288;SDS011;59068;52.502;9.860;2023-05-14T02:07:37;5.23;;;4.73;;
71288;SDS011;59068;52.502;9.860;2023-05-14T02:10:03;4.93;;;4.63;;
71288;SDS011;59068;52.502;9.860;2023-05-14T02:12:30;5.57;;;5.17;;
71288;SDS011;59068;52.502;9.860;2023-05-14T02:14:55;5.50;;;5.00;;
71288;SDS011;59068;52.502;9.860;2023-05-14T02:17:22;4.87;;;4.47;;
71288;SDS011;59068;52.502;9.860;2023-05-14T02:19:49;5.13;;;4.73;;
71288;SDS011;59068;52.502;9.860;2023-05-14T02:22:16;5.33;;;4.87;;
71288;SDS011;59068;52.502;9.860;2023-05-14T02:24:43;4.93;;;4.60;;
71288;SDS011;59068;52.502;9.860;2023-05-14T02:27:09;5.57;;;5.17;;
71288;SDS011;59068;52.502;9.860;2023-05-14T02:29:38;5.60;;;5.10;;
71288;SDS011;59068;52.502;9.860;2023-05-14T02:32:03;5.53;;;4.97;;
71288;SDS011;59068;52.502;9.860;2023-05-14T02:34:31;5.30;;;4.90;;
71288;SDS011;59068;52.502;9.860;2023-05-14T02:36:59;4.73;;;4.33;;
71288;SDS011;59068;52.502;9.860;2023-05-14T02:39:26;4.67;;;4.27;;
71288;SDS011;59068;52.502;9.860;2023-05-14T02:41:52;5.73;;;5.23;;
71288;SDS011;59068;52.502;9.860;2023-05-14T02:44:19;5.40;;;5.00;;
71288;SDS011;59068;52.502;9.860;2023-05-14T02:46:44;5.80;;;5.27;;
71288;SDS011;59068;52.502;9.860;2023-05-14T02:49:11;5.77;;;5.27;;
71288;SDS011;59068;52.502;9.860;2023-05-14T02:51:38;5.40;;;4.90;;
71288;SDS011;59068;52.502;9.860;2023-05-14T02:54:03;5.13;;;4.73;;
71288;SDS011;59068;52.502;9.860;2023-05-14T02:56:30;5.70;;;5.20;;
71288;SDS011;59068;52.502;9.860;2023-05-14T02:58:55;5.77;;;5.27;;
71288;SDS011;59068;52.502;9.860;2023-05-14T03:01:22;5.13;;;4.77;;
71288;SDS011;59068;52.502;9.860;2023-05-14T03:03:49;5.90;;;5.40;;
71288;SDS011;59068;52.502;9.860;2023-05-14T03:06:15;5.17;;;4.77;;
71288;SDS011;59068;52.502;9.860;2023-05-14T03:08:42;5.40;;;5.00;;
71288;SDS011;59068;52.502;9.860;2023-05-14T03:11:08;5.80;;;5.30;;
71288;SDS011;59068;52.502;9.860;2023-05-14T03:13:34;5.80;;;5.30;;
71288;SDS011;59068;52.502;9.860;2023-05-14T03:15:59;5.57;;;5.17;;
71288;SDS011;59068;52.502;9.860;2023-05-14T03:18:26;5.80;;;5.40;;
71288;SDS011;59068;52.502;9.860;2023-05-14T03:20:54;6.43;;;5.83;;
71288;SDS011;59068;52.502;9.860;2023-05-14T03:23:21;6.43;;;5.87;;
71288;SDS011;59068;52.502;9.860;2023-05-14T03:25:48;6.23;;;5.80;;
71288;SDS011;59068;52.502;9.860;2023-05-14T03:28:14;6.70;;;6.10;;
71288;SDS011;59068;52.502;9.860;2023-05-14T03:30:39;5.87;;;5.47;;
71288;SDS011;59068;52.502;9.860;2023-05-14T03:33:06;6.80;;;6.30;;
71288;SDS011;59068;52.502;9.860;2023-05-14T03:35:33;8.07;;;6.43;;
71288;SDS011;59068;52.502;9.860;2023-05-14T03:37:58;6.97;;;6.37;;
71288;SDS011;59068;52.502;9.860;2023-05-14T03:40:25;6.67;;;6.07;;
71288;SDS011;59068;52.502;9.860;2023-05-14T03:42:52;6.53;;;5.97;;
71288;SDS011;59068;52.502;9.860;2023-05-14T03:45:18;6.33;;;5.93;;
71288;SDS011;59068;52.502;9.860;2023-05-14T03:47:44;6.60;;;6.13;;
71288;SDS011;59068;52.502;9.860;2023-05-14T03:50:11;6.77;;;6.17;;
71288;SDS011;59068;52.502;9.860;2023-05-14T03:52:36;6.60;;;6.00;;
71288;SDS011;59068;52.502;9.860;2023-05-14T03:55:03;6.57;;;6.00;;
71288;SDS011;59068;52.502;9.860;2023-05-14T03:57:29;6.17;;;5.60;;
71288;SDS011;59068;52.502;9.860;2023-05-14T03:59:56;6.60;;;6.00;;
71288;SDS011;59068;52.502;9.860;2023-05-14T04:02:22;6.47;;;5.97;;
71288;SDS011;59068;52.502;9.860;2023-05-14T04:04:49;6.20;;;5.70;;
71288;SDS011;59068;52.502;9.860;2023-05-14T04:07:15;7.27;;;6.63;;
71288;SDS011;59068;52.502;9.860;2023-05-14T04:09:42;6.80;;;6.20;;
71288;SDS011;59068;52.502;9.860;2023-05-14T04:12:09;6.87;;;6.27;;
71288;SDS011;59068;52.502;9.860;2023-05-14T04:14:34;6.80;;;6.30;;
71288;SDS011;59068;52.502;9.860;2023-05-14T04:17:02;6.73;;;6.13;;
71288;SDS011;59068;52.502;9.860;2023-05-14T04:19:28;6.53;;;6.03;;
71288;SDS011;59068;52.502;9.860;2023-05-14T04:21:53;6.70;;;6.07;;
71288;SDS011;59068;52.502;9.860;2023-05-14T04:24:18;6.73;;;5.57;;
71288;SDS011;59068;52.502;9.860;2023-05-14T04:26:46;6.47;;;5.97;;
71288;SDS011;59068;52.502;9.860;2023-05-14T04:29:14;6.67;;;6.07;;
71288;SDS011;59068;52.502;9.860;2023-05-14T04:31:39;6.83;;;6.23;;
71288;SDS011;59068;52.502;9.860;2023-05-14T04:34:06;6.77;;;6.27;;
71288;SDS011;59068;52.502;9.860;2023-05-14T04:36:33;6.70;;;6.20;;
71288;SDS011;59068;52.502;9.860;2023-05-14T04:38:59;7.53;;;6.83;;
71288;SDS011;59068;52.502;9.860;2023-05-14T04:41:25;6.50;;;6.00;;
71288;SDS011;59068;52.502;9.860;2023-05-14T04:43:54;6.77;;;6.23;;
71288;SDS011;59068;52.502;9.860;2023-05-14T04:46:21;6.93;;;6.43;;
71288;SDS011;59068;52.502;9.860;2023-05-14T04:48:47;7.13;;;6.47;;
71288;SDS011;59068;52.502;9.860;2023-05-14T04:51:13;7.00;;;6.40;;
71288;SDS011;59068;52.502;9.860;2023-05-14T04:53:40;7.80;;;7.00;;
71288;SDS011;59068;52.502;9.860;2023-05-14T04:56:06;6.77;;;6.27;;
71288;SDS011;59068;52.502;9.860;2023-05-14T04:58:33;8.07;;;7.33;;
71288;SDS011;59068;52.502;9.860;2023-05-14T05:00:58;6.80;;;6.20;;
71288;SDS011;59068;52.502;9.860;2023-05-14T05:03:25;6.67;;;6.13;;
71288;SDS011;59068;52.502;9.860;2023-05-14T05:05:50;6.87;;;6.27;;
71288;SDS011;59068;52.502;9.860;2023-05-14T05:08:16;7.20;;;6.60;;
71288;SDS011;59068;52.502;9.860;2023-05-14T05:10:43;6.57;;;6.07;;
71288;SDS011;59068;52.502;9.860;2023-05-14T05:13:09;7.53;;;6.93;;
71288;SDS011;59068;52.502;9.860;2023-05-14T05:15:35;7.90;;;7.20;;
71288;SDS011;59068;52.502;9.860;2023-05-14T05:18:00;7.60;;;6.90;;
71288;SDS011;59068;52.502;9.860;2023-05-14T05:20:27;7.20;;;6.63;;
71288;SDS011;59068;52.502;9.860;2023-05-14T05:22:52;7.20;;;6.60;;
71288;SDS011;59068;52.502;9.860;2023-05-14T05:25:19;7.53;;;6.93;;
71288;SDS011;59068;52.502;9.860;2023-05-14T05:27:45;7.50;;;6.90;;
71288;SDS011;59068;52.502;9.860;2023-05-14T05:30:10;8.00;;;7.10;;
71288;SDS011;59068;52.502;9.860;2023-05-14T05:32:37;7.97;;;7.27;;
71288;SDS011;59068;52.502;9.860;2023-05-14T05:35:02;7.07;;;6.47;;
71288;SDS011;59068;52.502;9.860;2023-05-14T05:37:28;7.83;;;7.23;;
71288;SDS011;59068;52.502;9.860;2023-05-14T05:39:55;7.53;;;6.93;;
71288;SDS011;59068;52.502;9.860;2023-05-14T05:42:22;8.33;;;7.53;;
71288;SDS011;59068;52.502;9.860;2023-05-14T05:44:49;7.63;;;6.93;;
71288;SDS011;59068;52.502;9.860;2023-05-14T05:47:14;7.63;;;7.13;;
71288;SDS011;59068;52.502;9.860;2023-05-14T05:49:42;7.70;;;6.90;;
71288;SDS011;59068;52.502;9.860;2023-05-14T05:52:10;7.50;;;6.80;;
71288;SDS011;59068;52.502;9.860;2023-05-14T05:54:35;7.30;;;6.80;;
71288;SDS011;59068;52.502;9.860;2023-05-14T05:57:03;7.47;;;6.87;;
71288;SDS011;59068;52.502;9.860;2023-05-14T05:59:31;6.90;;;6.40;;
71288;SDS011;59068;52.502;9.860;2023-05-14T06:01:57;6.57;;;5.97;;
71288;SDS011;59068;52.502;9.860;2023-05-14T06:04:24;6.87;;;6.33;;
71288;SDS011;59068;52.502;9.860;2023-05-14T06:06:49;7.47;;;6.87;;
71288;SDS011;59068;52.502;9.860;2023-05-14T06:09:16;7.00;;;6.30;;
71288;SDS011;59068;52.502;9.860;2023-05-14T06:11:43;7.33;;;6.63;;
71288;SDS011;59068;52.502;9.860;2023-05-14T06:14:09;6.03;;;5.60;;
71288;SDS011;59068;52.502;9.860;2023-05-14T06:16:36;7.17;;;6.57;;
71288;SDS011;59068;52.502;9.860;2023-05-14T06:19:03;7.03;;;6.53;;
71288;SDS011;59068;52.502;9.860;2023-05-14T06:21:29;6.87;;;6.37;;
71288;SDS011;59068;52.502;9.860;2023-05-14T06:23:57;6.70;;;6.10;;
71288;SDS011;59068;52.502;9.860;2023-05-14T06:26:23;6.90;;;6.40;;
71288;SDS011;59068;52.502;9.860;2023-05-14T06:28:51;6.53;;;6.03;;
71288;SDS011;59068;52.502;9.860;2023-05-14T06:31:17;6.53;;;6.13;;
71288;SDS011;59068;52.502;9.860;2023-05-14T06:33:45;7.03;;;6.40;;
71288;SDS011;59068;52.502;9.860;2023-05-14T06:36:10;7.37;;;6.70;;
71288;SDS011;59068;52.502;9.860;2023-05-14T06:38:36;6.80;;;6.10;;
71288;SDS011;59068;52.502;9.860;2023-05-14T06:41:02;5.83;;;5.33;;
71288;SDS011;59068;52.502;9.860;2023-05-14T06:43:29;5.37;;;4.97;;
71288;SDS011;59068;52.502;9.860;2023-05-14T06:45:54;6.33;;;5.80;;
71288;SDS011;59068;52.502;9.860;2023-05-14T06:48:21;5.40;;;5.00;;
71288;SDS011;59068;52.502;9.860;2023-05-14T06:50:47;5.57;;;5.07;;
71288;SDS011;59068;52.502;9.860;2023-05-14T06:53:14;5.50;;;5.10;;
71288;SDS011;59068;52.502;9.860;2023-05-14T06:55:40;5.27;;;4.80;;
71288;SDS011;59068;52.502;9.860;2023-05-14T06:58:06;5.43;;;4.93;;
71288;SDS011;59068;52.502;9.860;2023-05-14T07:00:32;5.03;;;4.73;;
71288;SDS011;59068;52.502;9.860;2023-05-14T07:02:58;5.27;;;4.87;;
71288;SDS011;59068;52.502;9.860;2023-05-14T07:05:25;5.30;;;4.90;;
71288;SDS011;59068;52.502;9.860;2023-05-14T07:07:50;5.30;;;4.90;;
71288;SDS011;59068;52.502;9.860;2023-05-14T07:10:17;5.03;;;4.60;;
71288;SDS011;59068;52.502;9.860;2023-05-14T07:12:42;5.57;;;5.10;;
71288;SDS011;59068;52.502;9.860;2023-05-14T07:15:09;4.43;;;4.03;;
71288;SDS011;59068;52.502;9.860;2023-05-14T07:17:37;4.90;;;4.60;;
71288;SDS011;59068;52.502;9.860;2023-05-14T07:20:02;4.60;;;4.23;;
71288;SDS011;59068;52.502;9.860;2023-05-14T07:22:29;4.80;;;4.40;;
71288;SDS011;59068;52.502;9.860;2023-05-14T07:24:56;4.70;;;4.30;;
71288;SDS011;59068;52.502;9.860;2023-05-14T07:27:21;4.50;;;4.20;;
71288;SDS011;59068;52.502;9.860;2023-05-14T07:29:48;4.97;;;4.47;;
71288;SDS011;59068;52.502;9.860;2023-05-14T07:32:16;5.50;;;5.00;;
71288;SDS011;59068;52.502;9.860;2023-05-14T07:34:42;4.80;;;4.40;;
71288;SDS011;59068;52.502;9.860;2023-05-14T07:37:09;5.20;;;4.80;;
71288;SDS011;59068;52.502;9.860;2023-05-14T07:39:35;4.53;;;4.23;;
71288;SDS011;59068;52.502;9.860;2023-05-14T07:42:01;4.13;;;3.73;;
71288;SDS011;59068;52.502;9.860;2023-05-14T07:44:29;4.37;;;4.00;;
71288;SDS011;59068;52.502;9.860;2023-05-14T07:46:54;4.20;;;3.90;;
71288;SDS011;59068;52.502;9.860;2023-05-14T07:49:21;4.17;;;3.77;;
71288;SDS011;59068;52.502;9.860;2023-05-14T07:51:47;4.83;;;4.40;;
71288;SDS011;59068;52.502;9.860;2023-05-14T07:54:14;4.20;;;3.87;;
71288;SDS011;59068;52.502;9.860;2023-05-14T07:56:41;3.50;;;3.30;;
71288;SDS011;59068;52.502;9.860;2023-05-14T07:59:06;3.93;;;3.60;;
71288;SDS011;59068;52.502;9.860;2023-05-14T08:01:33;3.60;;;3.40;;
71288;SDS011;59068;52.502;9.860;2023-05-14T08:03:58;4.47;;;3.83;;
71288;SDS011;59068;52.502;9.860;2023-05-14T08:06:25;3.90;;;3.60;;
71288;SDS011;59068;52.502;9.860;2023-05-14T08:08:51;3.53;;;3.30;;
71288;SDS011;59068;52.502;9.860;2023-05-14T08:11:18;4.60;;;3.57;;
71288;SDS011;59068;52.502;9.860;2023-05-14T08:13:43;3.70;;;3.33;;
71288;SDS011;59068;52.502;9.860;2023-05-14T08:16:10;4.00;;;3.70;;
71288;SDS011;59068;52.502;9.860;2023-05-14T08:18:37;4.00;;;3.70;;
71288;SDS011;59068;52.502;9.860;2023-05-14T08:21:04;4.07;;;3.53;;
71288;SDS011;59068;52.502;9.860;2023-05-14T08:23:29;3.47;;;3.27;;
71288;SDS011;59068;52.502;9.860;2023-05-14T08:25:54;3.87;;;3.17;;
71288;SDS011;59068;52.502;9.860;2023-05-14T08:28:22;3.83;;;3.53;;
71288;SDS011;59068;52.502;9.860;2023-05-14T08:30:48;4.23;;;3.53;;
71288;SDS011;59068;52.502;9.860;2023-05-14T08:33:14;3.60;;;3.30;;
71288;SDS011;59068;52.502;9.860;2023-05-14T08:35:41;3.20;;;3.00;;
71288;SDS011;59068;52.502;9.860;2023-05-14T08:38:06;3.07;;;2.80;;
71288;SDS011;59068;52.502;9.860;2023-05-14T08:40:32;3.47;;;3.13;;
71288;SDS011;59068;52.502;9.860;2023-05-14T08:43:00;3.17;;;2.90;;
71288;SDS011;59068;52.502;9.860;2023-05-14T08:45:27;3.97;;;3.67;;
71288;SDS011;59068;52.502;9.860;2023-05-14T08:47:55;3.43;;;3.13;;
71288;SDS011;59068;52.502;9.860;2023-05-14T08:50:23;3.23;;;3.03;;
71288;SDS011;59068;52.502;9.860;2023-05-14T08:52:50;3.70;;;3.40;;
71288;SDS011;59068;52.502;9.860;2023-05-14T08:55:17;4.00;;;3.43;;
71288;SDS011;59068;52.502;9.860;2023-05-14T08:57:44;3.20;;;2.93;;
71288;SDS011;59068;52.502;9.860;2023-05-14T09:00:11;3.70;;;3.40;;
71288;SDS011;59068;52.502;9.860;2023-05-14T09:02:40;3.27;;;3.07;;
71288;SDS011;59068;52.502;9.860;2023-05-14T09:05:07;3.90;;;3.50;;
71288;SDS011;59068;52.502;9.860;2023-05-14T09:07:35;3.27;;;2.97;;
71288;SDS011;59068;52.502;9.860;2023-05-14T09:10:02;4.13;;;3.23;;
71288;SDS011;59068;52.502;9.860;2023-05-14T09:12:29;3.63;;;3.33;;
71288;SDS011;59068;52.502;9.860;2023-05-14T09:14:56;3.23;;;2.93;;
71288;SDS011;59068;52.502;9.860;2023-05-14T09:17:24;3.33;;;3.07;;
71288;SDS011;59068;52.502;9.860;2023-05-14T09:19:51;3.40;;;3.20;;
71288;SDS011;59068;52.502;9.860;2023-05-14T09:22:17;4.10;;;3.33;;
71288;SDS011;59068;52.502;9.860;2023-05-14T09:24:43;3.57;;;3.33;;
71288;SDS011;59068;52.502;9.860;2023-05-14T09:27:14;3.13;;;2.93;;
71288;SDS011;59068;52.502;9.860;2023-05-14T09:29:44;3.23;;;2.87;;
71288;SDS011;59068;52.502;9.860;2023-05-14T09:32:11;3.43;;;3.00;;
71288;SDS011;59068;52.502;9.860;2023-05-14T09:34:38;3.40;;;3.10;;
71288;SDS011;59068;52.502;9.860;2023-05-14T09:37:06;3.47;;;3.20;;
71288;SDS011;59068;52.502;9.860;2023-05-14T09:39:34;3.37;;;3.00;;
71288;SDS011;59068;52.502;9.860;2023-05-14T09:42:01;3.60;;;3.30;;
71288;SDS011;59068;52.502;9.860;2023-05-14T09:44:29;3.40;;;3.10;;
71288;SDS011;59068;52.502;9.860;2023-05-14T09:46:55;3.63;;;3.33;;
71288;SDS011;59068;52.502;9.860;2023-05-14T09:49:21;4.23;;;3.20;;
71288;SDS011;59068;52.502;9.860;2023-05-14T09:51:51;3.83;;;3.57;;
71288;SDS011;59068;52.502;9.860;2023-05-14T09:54:17;3.43;;;3.17;;
71288;SDS011;59068;52.502;9.860;2023-05-14T09:56:44;3.23;;;3.03;;
71288;SDS011;59068;52.502;9.860;2023-05-14T09:59:09;3.00;;;2.80;;
71288;SDS011;59068;52.502;9.860;2023-05-14T10:01:36;3.63;;;3.30;;
71288;SDS011;59068;52.502;9.860;2023-05-14T10:04:04;5.07;;;4.30;;
71288;SDS011;59068;52.502;9.860;2023-05-14T10:06:38;3.00;;;2.80;;
71288;SDS011;59068;52.502;9.860;2023-05-14T10:09:09;3.40;;;3.10;;
71288;SDS011;59068;52.502;9.860;2023-05-14T10:11:38;4.40;;;3.07;;
71288;SDS011;59068;52.502;9.860;2023-05-14T10:14:35;3.10;;;2.80;;
71288;SDS011;59068;52.502;9.860;2023-05-14T10:17:04;3.53;;;3.23;;
71288;SDS011;59068;52.502;9.860;2023-05-14T10:19:31;3.30;;;2.87;;
71288;SDS011;59068;52.502;9.860;2023-05-14T10:22:02;4.43;;;3.07;;
71288;SDS011;59068;52.502;9.860;2023-05-14T10:24:31;3.33;;;3.03;;
71288;SDS011;59068;52.502;9.860;2023-05-14T10:27:07;3.83;;;3.37;;
71288;SDS011;59068;52.502;9.860;2023-05-14T10:29:33;3.53;;;2.87;;
71288;SDS011;59068;52.502;9.860;2023-05-14T10:32:04;3.50;;;3.27;;
71288;SDS011;59068;52.502;9.860;2023-05-14T10:37:01;4.00;;;3.07;;
71288;SDS011;59068;52.502;9.860;2023-05-14T10:42:20;3.67;;;3.37;;
71288;SDS011;59068;52.502;9.860;2023-05-14T10:45:03;3.77;;;3.47;;
71288;SDS011;59068;52.502;9.860;2023-05-14T10:47:32;4.17;;;3.83;;
71288;SDS011;59068;52.502;9.860;2023-05-14T10:50:03;10.33;;;9.47;;
71288;SDS011;59068;52.502;9.860;2023-05-14T10:52:32;7.13;;;6.53;;
71288;SDS011;59068;52.502;9.860;2023-05-14T10:55:01;4.53;;;3.23;;
71288;SDS011;59068;52.502;9.860;2023-05-14T10:57:37;3.13;;;2.87;;
71288;SDS011;59068;52.502;9.860;2023-05-14T11:00:03;3.50;;;3.20;;
71288;SDS011;59068;52.502;9.860;2023-05-14T11:02:35;3.00;;;2.77;;
71288;SDS011;59068;52.502;9.860;2023-05-14T11:05:15;3.37;;;3.07;;
71288;SDS011;59068;52.502;9.860;2023-05-14T11:07:46;4.33;;;3.33;;
71288;SDS011;59068;52.502;9.860;2023-05-14T11:10:16;3.90;;;2.93;;
71288;SDS011;59068;52.502;9.860;2023-05-14T11:12:43;3.07;;;2.73;;
71288;SDS011;59068;52.502;9.860;2023-05-14T11:15:16;4.13;;;2.87;;
71288;SDS011;59068;52.502;9.860;2023-05-14T11:17:44;3.90;;;2.67;;
71288;SDS011;59068;52.502;9.860;2023-05-14T11:20:12;3.13;;;2.93;;
71288;SDS011;59068;52.502;9.860;2023-05-14T11:22:42;3.00;;;2.60;;
71288;SDS011;59068;52.502;9.860;2023-05-14T11:25:09;3.13;;;2.30;;
71288;SDS011;59068;52.502;9.860;2023-05-14T11:27:39;3.10;;;2.57;;
71288;SDS011;59068;52.502;9.860;2023-05-14T11:30:18;2.60;;;2.40;;
71288;SDS011;59068;52.502;9.860;2023-05-14T11:32:47;3.20;;;2.70;;
71288;SDS011;59068;52.502;9.860;2023-05-14T11:35:15;3.50;;;2.63;;
71288;SDS011;59068;52.502;9.860;2023-05-14T11:37:42;2.80;;;2.50;;
71288;SDS011;59068;52.502;9.860;2023-05-14T11:40:16;4.17;;;2.57;;
71288;SDS011;59068;52.502;9.860;2023-05-14T11:42:43;3.93;;;2.30;;
71288;SDS011;59068;52.502;9.860;2023-05-14T11:45:10;3.30;;;2.20;;
71288;SDS011;59068;52.502;9.860;2023-05-14T11:47:39;2.93;;;2.43;;
71288;SDS011;59068;52.502;9.860;2023-05-14T11:50:07;2.90;;;2.60;;
71288;SDS011;59068;52.502;9.860;2023-05-14T11:52:37;3.80;;;2.80;;
71288;SDS011;59068;52.502;9.860;2023-05-14T11:55:04;3.00;;;2.80;;
71288;SDS011;59068;52.502;9.860;2023-05-14T11:57:31;5.93;;;2.80;;
71288;SDS011;59068;52.502;9.860;2023-05-14T11:59:57;3.00;;;2.70;;
71288;SDS011;59068;52.502;9.860;2023-05-14T12:02:25;2.70;;;2.50;;
71288;SDS011;59068;52.502;9.860;2023-05-14T12:04:53;3.13;;;2.43;;
71288;SDS011;59068;52.502;9.860;2023-05-14T12:07:21;3.23;;;2.40;;
71288;SDS011;59068;52.502;9.860;2023-05-14T12:09:48;2.70;;;2.50;;
71288;SDS011;59068;52.502;9.860;2023-05-14T12:12:16;2.73;;;2.40;;
71288;SDS011;59068;52.502;9.860;2023-05-14T12:14:47;2.87;;;2.47;;
71288;SDS011;59068;52.502;9.860;2023-05-14T12:17:18;2.50;;;2.30;;
71288;SDS011;59068;52.502;9.860;2023-05-14T12:19:45;2.40;;;2.20;;
71288;SDS011;59068;52.502;9.860;2023-05-14T12:22:22;3.00;;;2.47;;
71288;SDS011;59068;52.502;9.860;2023-05-14T12:27:36;4.83;;;2.47;;
71288;SDS011;59068;52.502;9.860;2023-05-14T12:30:03;2.70;;;2.50;;
71288;SDS011;59068;52.502;9.860;2023-05-14T12:32:31;3.00;;;2.70;;
71288;SDS011;59068;52.502;9.860;2023-05-14T12:34:59;3.20;;;2.80;;
71288;SDS011;59068;52.502;9.860;2023-05-14T12:37:26;4.37;;;2.47;;
71288;SDS011;59068;52.502;9.860;2023-05-14T12:39:52;3.03;;;2.40;;
71288;SDS011;59068;52.502;9.860;2023-05-14T12:42:19;2.83;;;2.63;;
71288;SDS011;59068;52.502;9.860;2023-05-14T12:44:44;3.57;;;2.97;;
71288;SDS011;59068;52.502;9.860;2023-05-14T12:47:11;3.33;;;3.13;;
71288;SDS011;59068;52.502;9.860;2023-05-14T12:49:37;2.40;;;2.20;;
71288;SDS011;59068;52.502;9.860;2023-05-14T12:52:04;2.50;;;2.30;;
71288;SDS011;59068;52.502;9.860;2023-05-14T12:54:31;2.63;;;2.43;;
71288;SDS011;59068;52.502;9.860;2023-05-14T12:56:56;4.20;;;2.40;;
71288;SDS011;59068;52.502;9.860;2023-05-14T12:59:22;3.40;;;2.50;;
71288;SDS011;59068;52.502;9.860;2023-05-14T13:01:48;2.50;;;2.30;;
71288;SDS011;59068;52.502;9.860;2023-05-14T13:04:13;3.00;;;2.80;;
71288;SDS011;59068;52.502;9.860;2023-05-14T13:06:41;3.20;;;2.93;;
71288;SDS011;59068;52.502;9.860;2023-05-14T13:09:08;4.33;;;2.60;;
71288;SDS011;59068;52.502;9.860;2023-05-14T13:11:36;3.07;;;2.80;;
71288;SDS011;59068;52.502;9.860;2023-05-14T13:14:02;3.03;;;2.57;;
71288;SDS011;59068;52.502;9.860;2023-05-14T13:16:29;3.17;;;2.60;;
71288;SDS011;59068;52.502;9.860;2023-05-14T13:18:55;2.30;;;2.20;;
71288;SDS011;59068;52.502;9.860;2023-05-14T13:21:21;4.20;;;3.33;;
71288;SDS011;59068;52.502;9.860;2023-05-14T13:23:48;2.40;;;2.20;;
71288;SDS011;59068;52.502;9.860;2023-05-14T13:26:14;3.50;;;2.23;;
71288;SDS011;59068;52.502;9.860;2023-05-14T13:28:41;3.37;;;2.20;;
71288;SDS011;59068;52.502;9.860;2023-05-14T13:31:10;3.40;;;2.00;;
71288;SDS011;59068;52.502;9.860;2023-05-14T13:33:38;3.00;;;2.10;;
71288;SDS011;59068;52.502;9.860;2023-05-14T13:36:07;2.87;;;2.33;;
71288;SDS011;59068;52.502;9.860;2023-05-14T13:38:35;3.03;;;2.57;;
71288;SDS011;59068;52.502;9.860;2023-05-14T13:41:01;2.50;;;1.90;;
71288;SDS011;59068;52.502;9.860;2023-05-14T13:43:33;2.30;;;2.10;;
71288;SDS011;59068;52.502;9.860;2023-05-14T13:45:59;2.17;;;1.93;;
71288;SDS011;59068;52.502;9.860;2023-05-14T13:48:26;2.03;;;1.80;;
71288;SDS011;59068;52.502;9.860;2023-05-14T13:50:52;2.03;;;1.87;;
71288;SDS011;59068;52.502;9.860;2023-05-14T13:53:22;1.80;;;1.70;;
71288;SDS011;59068;52.502;9.860;2023-05-14T13:55:52;5.00;;;2.27;;
71288;SDS011;59068;52.502;9.860;2023-05-14T13:58:22;3.67;;;2.37;;
71288;SDS011;59068;52.502;9.860;2023-05-14T14:00:50;2.63;;;2.20;;
71288;SDS011;59068;52.502;9.860;2023-05-14T14:03:17;2.27;;;2.07;;
71288;SDS011;59068;52.502;9.860;2023-05-14T14:05:44;2.73;;;2.53;;
71288;SDS011;59068;52.502;9.860;2023-05-14T14:08:11;2.50;;;2.30;;
71288;SDS011;59068;52.502;9.860;2023-05-14T14:10:36;2.80;;;2.20;;
71288;SDS011;59068;52.502;9.860;2023-05-14T14:13:05;2.53;;;2.33;;
71288;SDS011;59068;52.502;9.860;2023-05-14T14:15:31;3.37;;;2.40;;
71288;SDS011;59068;52.502;9.860;2023-05-14T14:17:58;2.80;;;2.60;;
71288;SDS011;59068;52.502;9.860;2023-05-14T14:20:24;2.20;;;2.10;;
71288;SDS011;59068;52.502;9.860;2023-05-14T14:22:51;2.20;;;2.10;;
71288;SDS011;59068;52.502;9.860;2023-05-14T14:25:17;2.53;;;2.33;;
71288;SDS011;59068;52.502;9.860;2023-05-14T14:27:43;2.90;;;2.70;;
71288;SDS011;59068;52.502;9.860;2023-05-14T14:30:11;2.17;;;2.00;;
71288;SDS011;59068;52.502;9.860;2023-05-14T14:32:49;2.10;;;1.90;;
71288;SDS011;59068;52.502;9.860;2023-05-14T14:35:15;1.80;;;1.63;;
71288;SDS011;59068;52.502;9.860;2023-05-14T14:37:43;1.70;;;1.60;;
71288;SDS011;59068;52.502;9.860;2023-05-14T14:40:14;2.00;;;1.90;;
71288;SDS011;59068;52.502;9.860;2023-05-14T14:42:42;2.20;;;2.10;;
71288;SDS011;59068;52.502;9.860;2023-05-14T14:45:08;3.10;;;2.20;;
71288;SDS011;59068;52.502;9.860;2023-05-14T14:47:35;2.30;;;2.10;;
71288;SDS011;59068;52.502;9.860;2023-05-14T14:50:00;2.20;;;2.10;;
71288;SDS011;59068;52.502;9.860;2023-05-14T14:52:27;2.30;;;2.10;;
71288;SDS011;59068;52.502;9.860;2023-05-14T14:54:54;2.60;;;2.30;;
71288;SDS011;59068;52.502;9.860;2023-05-14T14:57:21;2.67;;;2.30;;
71288;SDS011;59068;52.502;9.860;2023-05-14T14:59:47;2.20;;;2.00;;
71288;SDS011;59068;52.502;9.860;2023-05-14T15:02:14;1.80;;;1.70;;
71288;SDS011;59068;52.502;9.860;2023-05-14T15:04:40;1.73;;;1.63;;
71288;SDS011;59068;52.502;9.860;2023-05-14T15:07:05;2.50;;;1.87;;
71288;SDS011;59068;52.502;9.860;2023-05-14T15:09:31;2.10;;;1.90;;